Time;durP1;ratioP1;P1;durP2;ratioP2;P2;SDS_P1;SDS_P2;PMS_P1;PMS_P2;Temp;Humidity;BMP_temperature;BMP_pressure;BME280_temperature;BME280_humidity;BME280_pressure;Samples;Min_cycle;Max_cycle;Signal;HPM_P1;HPM_P2
2023/01/22 00:00:59;;;;;;;;;;;;;;;14.01;100.00;98347.25;5122165;28;19973;-63
2023/01/22 00:03:25;;;;;;;;;;;;;;;13.09;100.00;98347.69;5120535;28;19970;-62
2023/01/22 00:05:52;;;;;;;;;;;;;;;11.31;100.00;98350.72;5130896;27;20473;-62
2023/01/22 00:08:18;;;;;;;;;;;;;;;10.00;100.00;98357.41;5120532;28;19963;-62
2023/01/22 00:10:49;;;;;;;;;;;;;;;11.10;100.00;98362.34;5120424;28;19920;-63
2023/01/22 00:13:16;;;;;;;;;;;;;;;13.29;100.00;98358.41;5111611;28;19924;-62
2023/01/22 00:15:42;;;;;;;;;;;;;;;13.70;100.00;98359.16;5111950;28;19928;-62
2023/01/22 00:18:09;;;;;;;;;;;;;;;12.94;100.00;98357.28;5111757;28;19950;-61
2023/01/22 00:20:35;;;;;;;;;;;;;;;11.20;100.00;98365.09;5111207;28;19975;-62
2023/01/22 00:23:01;;;;;;;;;;;;;;;10.22;100.00;98359.06;5111586;28;19934;-62
2023/01/22 00:25:28;;;;;;;;;;;;;;;9.22;100.00;98369.91;5111446;28;19935;-62
2023/01/22 00:27:55;;;;;;;;;;;;;;;8.59;100.00;98370.19;5111579;28;19968;-62
2023/01/22 00:30:22;;;;;;;;;;;;;;;8.12;100.00;98366.06;5111661;28;19991;-62
2023/01/22 00:32:48;;;;;;;;;;;;;;;7.80;100.00;98373.63;5111086;28;19991;-61
2023/01/22 00:35:15;;;;;;;;;;;;;;;7.56;100.00;98372.84;5120013;27;19920;-61
2023/01/22 00:37:41;;;;;;;;;;;;;;;7.33;100.00;98374.72;5123173;28;19923;-62
2023/01/22 00:40:08;;;;;;;;;;;;;;;7.10;100.00;98382.66;5119953;28;19928;-62
2023/01/22 00:42:35;;;;;;;;;;;;;;;6.70;100.00;98383.28;5119517;28;19946;-62
2023/01/22 00:45:02;;;;;;;;;;;;;;;6.48;100.00;98382.97;5121552;28;19950;-62
2023/01/22 00:47:29;;;;;;;;;;;;;;;6.29;100.00;98391.97;5123324;28;19935;-62
2023/01/22 00:49:56;;;;;;;;;;;;;;;5.98;100.00;98386.84;5121679;28;19934;-62
2023/01/22 00:52:22;;;;;;;;;;;;;;;4.98;100.00;98388.03;5119788;28;19928;-62
2023/01/22 00:54:48;;;;;;;;;;;;;;;4.76;100.00;98392.03;5119789;28;19954;-62
2023/01/22 00:57:18;;;;;;;;;;;;;;;4.86;100.00;98389.72;5123215;28;20037;-62
2023/01/22 00:59:45;;;;;;;;;;;;;;;4.80;100.00;98393.22;5122971;28;19927;-62
2023/01/22 01:02:12;;;;;;;;;;;;;;;4.68;100.00;98387.81;5120302;28;19920;-62
2023/01/22 01:04:39;;;;;;;;;;;;;;;4.76;100.00;98387.56;5104410;27;19988;-62
2023/01/22 01:07:05;;;;;;;;;;;;;;;4.51;100.00;98385.91;5124221;27;19975;-62
2023/01/22 01:09:31;;;;;;;;;;;;;;;4.26;100.00;98388.47;5123464;28;19949;-63
2023/01/22 01:11:59;;;;;;;;;;;;;;;4.29;100.00;98395.97;5121627;28;19924;-62
2023/01/22 01:14:25;;;;;;;;;;;;;;;4.52;100.00;98395.47;5120019;28;19977;-62
2023/01/22 01:16:52;;;;;;;;;;;;;;;4.52;100.00;98398.88;5120533;28;19988;-62
2023/01/22 01:19:20;;;;;;;;;;;;;;;4.55;100.00;98387.09;5123118;28;19945;-62
2023/01/22 01:21:47;;;;;;;;;;;;;;;4.46;100.00;98409.50;5122929;28;19920;-62
2023/01/22 01:24:13;;;;;;;;;;;;;;;4.22;100.00;98411.03;5119233;28;19956;-62
2023/01/22 01:26:40;;;;;;;;;;;;;;;4.27;100.00;98406.75;5119419;28;19941;-62
2023/01/22 01:29:08;;;;;;;;;;;;;;;4.39;100.00;98409.56;5121923;28;20075;-62
2023/01/22 01:31:36;;;;;;;;;;;;;;;4.55;100.00;98405.59;5122163;28;19963;-62
2023/01/22 01:34:02;;;;;;;;;;;;;;;4.71;100.00;98413.03;5120564;28;19975;-62
2023/01/22 01:36:30;;;;;;;;;;;;;;;4.83;100.00;98413.97;5124323;28;19943;-62
2023/01/22 01:38:56;;;;;;;;;;;;;;;4.84;100.00;98418.22;5120846;28;20027;-62
2023/01/22 01:41:24;;;;;;;;;;;;;;;4.87;100.00;98413.34;5123129;28;19938;-61
2023/01/22 01:44:07;;;;;;;;;;;;;;;4.87;100.00;98412.50;5122479;28;19920;-62
2023/01/22 01:46:35;;;;;;;;;;;;;;;4.89;100.00;98415.75;5119526;28;19978;-62
2023/01/22 01:49:02;;;;;;;;;;;;;;;4.53;100.00;98419.03;5121472;28;19983;-62
2023/01/22 01:51:32;;;;;;;;;;;;;;;4.47;100.00;98427.81;5122941;28;19955;-62
2023/01/22 01:53:59;;;;;;;;;;;;;;;4.38;100.00;98422.97;5121025;28;19919;-62
2023/01/22 01:56:28;;;;;;;;;;;;;;;4.11;100.00;98422.28;5119271;28;19928;-62
2023/01/22 01:58:55;;;;;;;;;;;;;;;3.73;100.00;98430.94;5120320;28;19931;-62
2023/01/22 02:01:22;;;;;;;;;;;;;;;3.44;100.00;98426.09;5123136;28;19930;-61
2023/01/22 02:03:50;;;;;;;;;;;;;;;3.18;100.00;98426.13;5122480;28;19963;-62
2023/01/22 02:06:17;;;;;;;;;;;;;;;3.04;100.00;98420.00;5124157;27;19983;-61
2023/01/22 02:08:46;;;;;;;;;;;;;;;3.12;100.00;98432.22;5119637;28;19935;-59
2023/01/22 02:11:13;;;;;;;;;;;;;;;3.22;100.00;98430.78;5110869;28;19924;-61
2023/01/22 02:13:43;;;;;;;;;;;;;;;3.28;100.00;98441.56;5110667;28;19948;-61
2023/01/22 02:16:10;;;;;;;;;;;;;;;3.00;100.00;98437.25;5110435;28;19924;-62
2023/01/22 02:18:37;;;;;;;;;;;;;;;2.75;100.00;98440.69;5110131;28;19951;-62
2023/01/22 02:21:25;;;;;;;;;;;;;;;3.05;100.00;98440.13;5109974;28;19954;-62
2023/01/22 02:23:52;;;;;;;;;;;;;;;2.64;100.00;98439.44;5110193;28;19956;-62
2023/01/22 02:26:18;;;;;;;;;;;;;;;2.29;100.00;98437.94;5109958;28;19924;-62
2023/01/22 02:28:45;;;;;;;;;;;;;;;2.51;100.00;98439.38;5109826;28;19983;-61
2023/01/22 02:31:11;;;;;;;;;;;;;;;2.47;100.00;98444.28;5113369;28;19927;-62
2023/01/22 02:33:37;;;;;;;;;;;;;;;2.95;100.00;98436.25;5121797;28;19930;-62
2023/01/22 02:36:06;;;;;;;;;;;;;;;3.38;100.00;98449.84;5124078;28;19970;-62
2023/01/22 02:38:32;;;;;;;;;;;;;;;3.45;100.00;98443.56;5118280;28;20006;-62
2023/01/22 02:40:58;;;;;;;;;;;;;;;3.51;100.00;98441.94;5119943;28;19979;-62
2023/01/22 02:43:25;;;;;;;;;;;;;;;3.35;100.00;98445.78;5106456;28;19973;-62
2023/01/22 02:45:52;;;;;;;;;;;;;;;3.60;100.00;98435.41;5124698;28;19991;-62
2023/01/22 02:48:19;;;;;;;;;;;;;;;3.57;100.00;98435.81;5121996;28;19924;-62
2023/01/22 02:50:45;;;;;;;;;;;;;;;3.47;100.00;98430.16;5121884;28;19988;-62
2023/01/22 02:53:13;;;;;;;;;;;;;;;3.53;100.00;98429.34;5121682;28;19928;-62
2023/01/22 02:55:40;;;;;;;;;;;;;;;3.59;100.00;98437.25;5121680;28;19920;-63
2023/01/22 02:58:17;;;;;;;;;;;;;;;;;;;;;
2023/01/22 03:21:17;;;;;;;;;;;;;;;3.80;100.00;98441.50;5124078;27;19988;-61
2023/01/22 03:23:44;;;;;;;;;;;;;;;3.97;100.00;98445.28;5115454;28;19924;-61
2023/01/22 03:26:10;;;;;;;;;;;;;;;4.12;100.00;98439.75;5115947;28;19962;-61
2023/01/22 03:28:37;;;;;;;;;;;;;;;4.09;100.00;98442.81;5115916;28;19951;-61
2023/01/22 03:31:03;;;;;;;;;;;;;;;4.16;100.00;98441.78;5118136;28;19959;-61
2023/01/22 03:33:30;;;;;;;;;;;;;;;4.23;100.00;98441.75;5119382;28;19955;-61
2023/01/22 03:35:59;;;;;;;;;;;;;;;4.04;100.00;98451.38;5122733;28;19924;-62
2023/01/22 03:38:27;;;;;;;;;;;;;;;3.47;100.00;98445.97;5115797;28;19946;-62
2023/01/22 03:40:53;;;;;;;;;;;;;;;3.10;100.00;98442.13;5116321;28;19959;-62
2023/01/22 03:43:19;;;;;;;;;;;;;;;2.84;100.00;98450.84;5119421;28;20418;-62
2023/01/22 03:45:46;;;;;;;;;;;;;;;2.93;100.00;98457.56;5119484;28;19928;-62
2023/01/22 03:48:12;;;;;;;;;;;;;;;2.44;100.00;98454.41;5107144;28;19967;-61
2023/01/22 03:50:38;;;;;;;;;;;;;;;2.45;100.00;98453.38;5107081;28;19925;-60
2023/01/22 03:53:05;;;;;;;;;;;;;;;2.60;100.00;98454.84;5107047;28;20572;-61
2023/01/22 03:55:32;;;;;;;;;;;;;;;2.30;100.00;98455.34;5106857;28;19924;-61
2023/01/22 03:57:59;;;;;;;;;;;;;;;2.77;100.00;98455.28;5106730;28;20034;-62
2023/01/22 04:00:25;;;;;;;;;;;;;;;2.78;100.00;98464.03;5106888;28;19928;-62
2023/01/22 04:02:52;;;;;;;;;;;;;;;2.77;100.00;98463.22;5106936;28;19960;-62
2023/01/22 04:05:19;;;;;;;;;;;;;;;2.49;100.00;98462.50;5116165;28;19931;-61
2023/01/22 04:07:45;;;;;;;;;;;;;;;2.24;100.00;98466.66;5118649;28;19930;-61
2023/01/22 04:10:11;;;;;;;;;;;;;;;2.58;100.00;98469.22;5115277;28;19967;-62
2023/01/22 04:12:39;;;;;;;;;;;;;;;2.88;100.00;98467.09;5115404;28;19924;-61
2023/01/22 04:15:06;;;;;;;;;;;;;;;2.68;100.00;98472.31;5117702;28;19924;-61
2023/01/22 04:17:33;;;;;;;;;;;;;;;2.57;100.00;98471.06;5118557;28;19955;-61
2023/01/22 04:19:59;;;;;;;;;;;;;;;2.95;100.00;98474.00;5116816;28;19941;-61
2023/01/22 04:22:25;;;;;;;;;;;;;;;3.13;100.00;98471.56;5114939;28;19992;-61
2023/01/22 04:24:52;;;;;;;;;;;;;;;2.97;100.00;98474.59;5115554;28;19966;-61
2023/01/22 04:27:18;;;;;;;;;;;;;;;3.05;100.00;98477.06;5118521;28;19924;-61
2023/01/22 04:29:46;;;;;;;;;;;;;;;3.26;100.00;98481.34;5118378;28;19959;-61
2023/01/22 04:32:12;;;;;;;;;;;;;;;2.53;100.00;98488.31;5094698;28;19960;-61
2023/01/22 04:34:38;;;;;;;;;;;;;;;2.47;100.00;98475.91;5095513;28;19925;-61
2023/01/22 04:37:05;;;;;;;;;;;;;;;2.07;100.00;98480.16;5105627;28;20008;-61
2023/01/22 04:39:31;;;;;;;;;;;;;;;1.94;100.00;98489.84;5104680;28;19924;-61
2023/01/22 04:41:58;;;;;;;;;;;;;;;1.95;100.00;98489.63;5103178;28;19928;-61
2023/01/22 04:44:24;;;;;;;;;;;;;;;1.96;100.00;98485.19;5101113;28;19927;-61
2023/01/22 04:46:52;;;;;;;;;;;;;;;1.95;100.00;98484.34;5101342;28;19959;-61
2023/01/22 04:49:18;;;;;;;;;;;;;;;1.99;100.00;98484.78;5104447;28;19966;-62
2023/01/22 04:51:44;;;;;;;;;;;;;;;2.32;100.00;98488.38;5104279;28;19960;-61
2023/01/22 04:54:11;;;;;;;;;;;;;;;2.20;100.00;98492.59;5100776;28;19928;-62
2023/01/22 04:56:37;;;;;;;;;;;;;;;2.30;100.00;98484.34;5100644;28;19928;-62
2023/01/22 04:59:04;;;;;;;;;;;;;;;2.33;100.00;98486.56;5102949;28;19925;-62
2023/01/22 05:01:30;;;;;;;;;;;;;;;2.35;100.00;98482.75;5104298;28;19960;-61
2023/01/22 05:04:00;;;;;;;;;;;;;;;2.23;100.00;98486.16;5102710;28;19935;-61
2023/01/22 05:06:26;;;;;;;;;;;;;;;2.10;100.00;98485.03;5105521;28;19972;-61
2023/01/22 05:08:52;;;;;;;;;;;;;;;2.07;100.00;98490.69;5101338;28;19963;-61
2023/01/22 05:11:19;;;;;;;;;;;;;;;2.23;100.00;98494.84;5103172;28;19920;-62
2023/01/22 05:13:45;;;;;;;;;;;;;;;2.35;100.00;98490.66;5103869;28;19985;-62
2023/01/22 05:16:11;;;;;;;;;;;;;;;2.17;100.00;98491.16;5100091;28;19972;-61
2023/01/22 05:18:38;;;;;;;;;;;;;;;2.53;100.00;98493.56;5100175;28;19967;-61
2023/01/22 05:21:06;;;;;;;;;;;;;;;2.37;100.00;98495.72;5102214;28;19924;-61
2023/01/22 05:23:32;;;;;;;;;;;;;;;2.53;100.00;98495.41;5103456;28;19924;-61
2023/01/22 05:25:58;;;;;;;;;;;;;;;3.03;100.00;98494.91;5101513;28;20015;-62
2023/01/22 05:28:25;;;;;;;;;;;;;;;3.25;100.00;98499.00;5099742;28;19995;-62
2023/01/22 05:30:51;;;;;;;;;;;;;;;3.21;100.00;98492.50;5100180;28;19987;-61
2023/01/22 05:33:18;;;;;;;;;;;;;;;2.97;100.00;98498.34;5103308;28;19946;-62
2023/01/22 05:35:44;;;;;;;;;;;;;;;2.90;100.00;98502.81;5108207;28;19963;-62
2023/01/22 05:38:12;;;;;;;;;;;;;;;2.73;100.00;98501.53;5099482;28;19921;-61
2023/01/22 05:40:38;;;;;;;;;;;;;;;2.55;100.00;98501.28;5099383;28;19924;-60
2023/01/22 05:43:04;;;;;;;;;;;;;;;2.84;100.00;98503.59;5100964;28;19928;-62
2023/01/22 05:45:31;;;;;;;;;;;;;;;2.97;100.00;98500.97;5102869;28;19924;-62
2023/01/22 05:47:57;;;;;;;;;;;;;;;3.12;100.00;98509.56;5101290;28;19928;-62
2023/01/22 05:50:23;;;;;;;;;;;;;;;2.97;100.00;98508.09;5099257;28;20536;-62
2023/01/22 05:52:53;;;;;;;;;;;;;;;2.93;100.00;98512.97;5099538;28;19920;-61
2023/01/22 05:55:21;;;;;;;;;;;;;;;3.04;100.00;98516.81;5102733;28;19973;-61
2023/01/22 05:57:48;;;;;;;;;;;;;;;2.99;100.00;98516.63;5102450;28;19932;-61
2023/01/22 06:00:17;;;;;;;;;;;;;;;2.59;100.00;98511.25;5099039;28;19955;-61
2023/01/22 06:02:44;;;;;;;;;;;;;;;2.69;100.00;98518.78;5099076;28;19947;-62
2023/01/22 06:05:10;;;;;;;;;;;;;;;2.76;100.00;98521.41;5105906;28;20025;-62
2023/01/22 06:07:36;;;;;;;;;;;;;;;2.61;100.00;98509.19;5102379;28;19963;-62
2023/01/22 06:10:03;;;;;;;;;;;;;;;2.91;100.00;98514.97;5099969;28;19963;-62
2023/01/22 06:12:31;;;;;;;;;;;;;;;2.91;100.00;98514.19;5098857;28;19921;-62
2023/01/22 06:14:57;;;;;;;;;;;;;;;2.92;100.00;98516.59;5100192;28;19936;-62
2023/01/22 06:17:23;;;;;;;;;;;;;;;2.94;100.00;98511.94;5102370;28;19971;-62
2023/01/22 06:19:50;;;;;;;;;;;;;;;2.91;100.00;98506.25;5100571;28;19962;-61
2023/01/22 06:22:18;;;;;;;;;;;;;;;2.83;100.00;98523.06;5098653;28;19959;-61
2023/01/22 06:24:44;;;;;;;;;;;;;;;2.70;100.00;98512.47;5098572;28;19999;-61
2023/01/22 06:27:10;;;;;;;;;;;;;;;2.70;100.00;98523.03;5101818;28;19958;-61
2023/01/22 06:29:38;;;;;;;;;;;;;;;3.02;100.00;98522.31;5102091;28;19924;-62
2023/01/22 06:32:04;;;;;;;;;;;;;;;3.03;100.00;98523.91;5099802;28;19987;-61
2023/01/22 06:34:31;;;;;;;;;;;;;;;3.13;100.00;98529.63;5099159;28;19920;-61
2023/01/22 06:36:57;;;;;;;;;;;;;;;3.03;100.00;98528.41;5104102;28;19989;-61
2023/01/22 06:39:23;;;;;;;;;;;;;;;2.99;100.00;98524.53;5100955;28;19962;-62
2023/01/22 06:41:50;;;;;;;;;;;;;;;2.98;100.00;98528.19;5101293;28;19965;-61
2023/01/22 06:44:17;;;;;;;;;;;;;;;2.98;100.00;98531.63;5098109;28;19935;-61
2023/01/22 06:46:45;;;;;;;;;;;;;;;2.91;100.00;98537.91;5098266;28;19924;-61
2023/01/22 06:49:12;;;;;;;;;;;;;;;2.69;100.00;98539.88;5101682;28;19925;-61
2023/01/22 06:51:39;;;;;;;;;;;;;;;2.64;100.00;98537.00;5101735;28;19920;-61
2023/01/22 06:54:05;;;;;;;;;;;;;;;2.58;100.00;98543.06;5098667;28;19934;-61
2023/01/22 06:56:32;;;;;;;;;;;;;;;2.35;100.00;98543.38;5097970;28;19924;-61
2023/01/22 06:58:58;;;;;;;;;;;;;;;2.77;100.00;98546.78;5099503;28;19925;-61
2023/01/22 07:01:25;;;;;;;;;;;;;;;2.75;100.00;98541.72;5101401;28;19959;-61
2023/01/22 07:03:52;;;;;;;;;;;;;;;2.58;100.00;98556.25;5100834;28;19928;-61
2023/01/22 07:06:19;;;;;;;;;;;;;;;2.40;100.00;98558.59;5102762;28;19928;-61
2023/01/22 07:08:45;;;;;;;;;;;;;;;2.34;100.00;98565.47;5098111;28;19962;-62
2023/01/22 07:11:12;;;;;;;;;;;;;;;2.40;100.00;98569.13;5100433;28;20046;-60
2023/01/22 07:13:38;;;;;;;;;;;;;;;2.54;100.00;98565.53;5101299;28;19928;-60
2023/01/22 07:16:05;;;;;;;;;;;;;;;2.56;100.00;98563.53;5098870;28;19984;-60
2023/01/22 07:18:32;;;;;;;;;;;;;;;2.36;100.00;98573.16;5097790;28;19978;-61
2023/01/22 07:21:01;;;;;;;;;;;;;;;2.32;100.00;98578.00;5098772;28;20022;-61
2023/01/22 07:23:28;;;;;;;;;;;;;;;2.39;100.00;98583.31;5101298;28;19960;-61
2023/01/22 07:25:54;;;;;;;;;;;;;;;2.62;100.00;98589.13;5100145;28;19977;-61
2023/01/22 07:28:20;;;;;;;;;;;;;;;2.43;100.00;98595.94;5097638;28;19925;-61
2023/01/22 07:30:47;;;;;;;;;;;;;;;2.61;100.00;98590.13;5097691;28;20070;-61
2023/01/22 07:33:14;;;;;;;;;;;;;;;2.73;100.00;98601.75;5089219;28;19931;-62
2023/01/22 07:35:41;;;;;;;;;;;;;;;2.60;100.00;98602.50;5101754;28;19924;-62
2023/01/22 07:38:09;;;;;;;;;;;;;;;2.58;100.00;98608.97;5098104;28;19939;-62
2023/01/22 07:40:35;;;;;;;;;;;;;;;2.46;100.00;98621.91;5097469;28;20561;-62
2023/01/22 07:43:05;;;;;;;;;;;;;;;2.41;100.00;98613.78;5098467;28;20413;-62
2023/01/22 07:45:31;;;;;;;;;;;;;;;2.35;100.00;98611.91;5101378;28;20598;-62
2023/01/22 07:47:58;;;;;;;;;;;;;;;2.23;100.00;98610.00;5099608;28;19961;-62
2023/01/22 07:50:26;;;;;;;;;;;;;;;2.20;100.00;98610.38;5097671;28;19921;-62
2023/01/22 07:52:53;;;;;;;;;;;;;;;1.80;100.00;98612.69;5097946;28;19932;-62
2023/01/22 07:55:20;;;;;;;;;;;;;;;2.00;100.00;98608.41;5100930;28;19924;-61
2023/01/22 07:57:47;;;;;;;;;;;;;;;2.16;100.00;98628.41;5100913;28;19924;-61
2023/01/22 08:00:14;;;;;;;;;;;;;;;2.40;100.00;98625.31;5097463;28;19959;-60
2023/01/22 08:02:41;;;;;;;;;;;;;;;2.32;100.00;98629.94;5097397;28;19940;-60
2023/01/22 08:05:09;;;;;;;;;;;;;;;2.34;100.00;98638.44;5105224;28;19928;-61
2023/01/22 08:07:35;;;;;;;;;;;;;;;2.54;100.00;98639.38;5103743;28;19987;-61
2023/01/22 08:10:01;;;;;;;;;;;;;;;2.59;100.00;98626.44;5102434;28;19920;-61
2023/01/22 08:12:29;;;;;;;;;;;;;;;2.66;100.00;98638.63;5101108;28;19932;-61
2023/01/22 08:14:55;;;;;;;;;;;;;;;2.83;100.00;98640.94;5102325;28;19988;-61
2023/01/22 08:17:22;;;;;;;;;;;;;;;2.55;100.00;98641.81;5104599;28;19924;-61
2023/01/22 08:19:48;;;;;;;;;;;;;;;2.35;100.00;98645.34;5104356;28;19924;-61
2023/01/22 08:22:15;;;;;;;;;;;;;;;2.20;100.00;98647.28;5101049;28;19960;-62
2023/01/22 08:24:41;;;;;;;;;;;;;;;2.43;100.00;98650.47;5101177;28;19962;-61
2023/01/22 08:27:08;;;;;;;;;;;;;;;2.12;100.00;98651.69;5103799;28;19947;-61
2023/01/22 08:29:35;;;;;;;;;;;;;;;2.05;100.00;98652.63;5104448;28;19927;-61
2023/01/22 08:32:02;;;;;;;;;;;;;;;1.97;100.00;98661.47;5102481;28;19931;-61
2023/01/22 08:34:28;;;;;;;;;;;;;;;1.77;100.00;98665.75;5100969;28;19979;-61
2023/01/22 08:36:55;;;;;;;;;;;;;;;1.91;100.00;98677.22;5100743;28;19960;-61
2023/01/22 08:39:21;;;;;;;;;;;;;;;1.69;100.00;98665.88;5100868;28;19928;-61
2023/01/22 08:41:47;;;;;;;;;;;;;;;1.57;100.00;98678.72;5100676;28;19952;-60
2023/01/22 08:44:14;;;;;;;;;;;;;;;1.60;100.00;98677.53;5100612;28;19952;-60
2023/01/22 08:46:41;;;;;;;;;;;;;;;1.81;100.00;98685.44;5100617;28;19967;-61
2023/01/22 08:49:08;;;;;;;;;;;;;;;1.90;100.00;98691.38;5103444;28;19985;-61
2023/01/22 08:51:35;;;;;;;;;;;;;;;1.90;100.00;98688.75;5104302;28;19980;-61
2023/01/22 08:54:01;;;;;;;;;;;;;;;2.04;100.00;98698.44;5102095;28;19988;-61
2023/01/22 08:56:27;;;;;;;;;;;;;;;2.00;100.00;98689.25;5100541;28;19931;-61
2023/01/22 08:58:55;;;;;;;;;;;;;;;2.17;100.00;98686.16;5101290;28;19921;-61
2023/01/22 09:01:21;;;;;;;;;;;;;;;2.54;100.00;98684.19;5102811;28;19920;-63
2023/01/22 09:03:49;;;;;;;;;;;;;;;2.57;100.00;98683.81;5104153;28;19924;-63
2023/01/22 09:06:15;;;;;;;;;;;;;;;2.64;100.00;98688.13;5105328;28;19924;-61
2023/01/22 09:08:41;;;;;;;;;;;;;;;2.79;100.00;98684.53;5100365;28;19987;-61
2023/01/22 09:11:08;;;;;;;;;;;;;;;3.00;100.00;98684.47;5103142;28;19927;-61
2023/01/22 09:13:37;;;;;;;;;;;;;;;3.32;100.00;98683.78;5103798;28;19959;-61
2023/01/22 09:16:04;;;;;;;;;;;;;;;2.98;100.00;98684.66;5101373;28;19925;-62
2023/01/22 09:18:31;;;;;;;;;;;;;;;3.19;100.00;98681.91;5100467;28;19932;-62
2023/01/22 09:20:59;;;;;;;;;;;;;;;3.20;100.00;98688.81;5101590;28;19925;-62
2023/01/22 09:23:25;;;;;;;;;;;;;;;3.29;100.00;98692.09;5104098;28;19976;-62
2023/01/22 09:25:51;;;;;;;;;;;;;;;3.39;100.00;98692.56;5103274;28;19940;-62
2023/01/22 09:28:19;;;;;;;;;;;;;;;2.94;100.00;98693.19;5100350;28;19924;-62
2023/01/22 09:30:45;;;;;;;;;;;;;;;2.89;100.00;98690.28;5100115;28;19988;-63
2023/01/22 09:33:12;;;;;;;;;;;;;;;2.87;100.00;98695.78;5103285;28;19960;-62
2023/01/22 09:35:38;;;;;;;;;;;;;;;2.91;100.00;98698.84;5108921;28;20380;-62
2023/01/22 09:38:06;;;;;;;;;;;;;;;3.29;100.00;98702.66;5101101;28;19926;-62
2023/01/22 09:40:35;;;;;;;;;;;;;;;3.44;100.00;98713.06;5100223;28;19924;-62
2023/01/22 09:43:04;;;;;;;;;;;;;;;3.64;100.00;98706.03;5102228;28;19962;-62
2023/01/22 09:45:32;;;;;;;;;;;;;;;3.75;100.00;98705.44;5103575;28;19928;-62
2023/01/22 09:48:01;;;;;;;;;;;;;;;3.73;100.00;98712.75;5102026;28;19948;-62
2023/01/22 09:50:29;;;;;;;;;;;;;;;3.15;100.00;98701.81;5100104;28;19924;-62
2023/01/22 09:52:57;;;;;;;;;;;;;;;3.15;100.00;98715.00;5100972;28;19956;-62
2023/01/22 09:55:29;;;;;;;;;;;;;;;3.43;100.00;98719.38;5103804;28;19931;-62
2023/01/22 09:57:56;;;;;;;;;;;;;;;3.54;100.00;98716.16;5102289;28;19982;-63
2023/01/22 10:00:23;;;;;;;;;;;;;;;3.61;100.00;98711.72;5099898;28;19988;-62
2023/01/22 10:02:52;;;;;;;;;;;;;;;3.52;100.00;98711.09;5100003;28;19920;-62
2023/01/22 10:05:23;;;;;;;;;;;;;;;3.74;100.00;98706.47;5108425;28;19939;-62
2023/01/22 10:07:51;;;;;;;;;;;;;;;3.70;100.00;98706.06;5102449;28;19924;-62
2023/01/22 10:10:19;;;;;;;;;;;;;;;3.87;100.00;98706.47;5099363;28;19924;-62
2023/01/22 10:12:51;;;;;;;;;;;;;;;3.85;100.00;98711.16;5099264;28;19967;-62
2023/01/22 10:15:19;;;;;;;;;;;;;;;3.87;100.00;98709.13;5099366;28;19924;-66
2023/01/22 10:17:46;;;;;;;;;;;;;;;3.98;100.00;98703.25;5098978;28;20745;-61
2023/01/22 10:20:14;;;;;;;;;;;;;;;4.04;100.00;98710.38;5090247;28;19924;-61
2023/01/22 10:22:40;;;;;;;;;;;;;;;3.92;100.00;98703.25;5089098;28;19924;-61
2023/01/22 10:25:09;;;;;;;;;;;;;;;4.08;100.00;98703.69;5090316;28;19940;-61
2023/01/22 10:27:38;;;;;;;;;;;;;;;4.24;100.00;98703.28;5090235;28;20007;-62
2023/01/22 10:30:15;;;;;;;;;;;;;;;4.26;100.00;98698.63;5089629;28;19963;-62
2023/01/22 10:32:41;;;;;;;;;;;;;;;4.40;100.00;98701.22;5090105;28;19946;-62
2023/01/22 10:35:16;;;;;;;;;;;;;;;4.18;100.00;98706.72;5098009;28;19928;-62
2023/01/22 10:37:44;;;;;;;;;;;;;;;3.55;100.00;98712.50;5101878;28;19931;-62
2023/01/22 10:40:19;;;;;;;;;;;;;;;3.39;100.00;98702.28;5098952;28;19920;-62
2023/01/22 10:42:46;;;;;;;;;;;;;;;3.70;100.00;98713.97;5098444;28;20015;-62
2023/01/22 10:45:16;;;;;;;;;;;;;;;4.02;100.00;98701.84;5102083;28;19966;-62
2023/01/22 10:47:42;;;;;;;;;;;;;;;3.91;100.00;98705.06;5102017;28;19924;-62
2023/01/22 10:50:12;;;;;;;;;;;;;;;3.75;100.00;98708.09;5098989;28;19929;-62
2023/01/22 10:52:41;;;;;;;;;;;;;;;4.01;100.00;98700.22;5098493;28;19984;-62
2023/01/22 10:55:19;;;;;;;;;;;;;;;4.17;100.00;98702.47;5100939;28;19932;-62
2023/01/22 10:57:48;;;;;;;;;;;;;;;4.05;100.00;98705.91;5101774;28;19925;-62
2023/01/22 11:00:23;;;;;;;;;;;;;;;3.87;100.00;98698.56;5098227;28;19924;-62
2023/01/22 11:02:50;;;;;;;;;;;;;;;3.96;100.00;98700.00;5098021;28;19920;-62
2023/01/22 11:05:17;;;;;;;;;;;;;;;3.75;100.00;98692.22;5106605;28;19947;-62
2023/01/22 11:07:44;;;;;;;;;;;;;;;3.69;100.00;98693.03;5101587;28;20015;-62
2023/01/22 11:10:17;;;;;;;;;;;;;;;3.63;100.00;98689.38;5098179;28;19931;-62
2023/01/22 11:12:46;;;;;;;;;;;;;;;3.49;100.00;98703.56;5098174;28;19963;-62
2023/01/22 11:15:17;;;;;;;;;;;;;;;3.70;100.00;98694.69;5101497;28;19924;-62
2023/01/22 11:17:48;;;;;;;;;;;;;;;3.61;100.00;98695.88;5101973;28;19966;-62
2023/01/22 11:20:16;;;;;;;;;;;;;;;3.48;100.00;98701.94;5098433;28;19925;-62
2023/01/22 11:22:45;;;;;;;;;;;;;;;3.40;100.00;98704.75;5098508;28;19924;-62
2023/01/22 11:25:11;;;;;;;;;;;;;;;3.34;100.00;98691.53;5101854;28;19920;-62
2023/01/22 11:27:49;;;;;;;;;;;;;;;3.27;100.00;98688.84;5102226;28;19924;-62
2023/01/22 11:30:31;;;;;;;;;;;;;;;3.34;100.00;98696.81;5098371;28;19924;-61
2023/01/22 11:33:04;;;;;;;;;;;;;;;3.12;100.00;98706.66;5099756;28;19924;-61
2023/01/22 11:35:35;;;;;;;;;;;;;;;3.01;100.00;98700.09;5107242;28;19924;-61
2023/01/22 11:38:14;;;;;;;;;;;;;;;2.83;100.00;98688.44;5098808;28;19955;-60
2023/01/22 11:40:45;;;;;;;;;;;;;;;3.95;100.00;98698.38;5098638;28;20841;-60
2023/01/22 11:43:19;;;;;;;;;;;;;;;8.29;100.00;98688.97;5105756;28;19946;-61
2023/01/22 11:46:00;;;;;;;;;;;;;;;9.31;100.00;98678.72;5106266;28;19924;-60
2023/01/22 11:48:38;;;;;;;;;;;;;;;9.76;100.00;98676.91;5094272;28;20038;-61
2023/01/22 11:51:10;;;;;;;;;;;;;;;10.06;100.00;98672.13;5094033;28;19924;-60
2023/01/22 11:53:47;;;;;;;;;;;;;;;10.28;100.00;98669.59;5093933;28;19955;-61
2023/01/22 11:56:22;;;;;;;;;;;;;;;10.53;100.00;98666.50;5093961;28;19960;-61
2023/01/22 11:58:52;;;;;;;;;;;;;;;10.66;100.00;98667.00;5093683;28;19928;-61
2023/01/22 12:01:23;;;;;;;;;;;;;;;10.80;100.00;98670.91;5101901;28;19929;-60
2023/01/22 12:04:00;;;;;;;;;;;;;;;10.93;98.99;98667.09;5102106;28;20023;-61
2023/01/22 12:06:34;;;;;;;;;;;;;;;11.06;97.56;98666.75;5111104;28;19995;-60
2023/01/22 12:09:05;;;;;;;;;;;;;;;11.24;95.44;98665.63;5103345;28;19928;-60
2023/01/22 12:11:37;;;;;;;;;;;;;;;11.38;94.04;98673.06;5105393;28;19928;-60
2023/01/22 12:14:34;;;;;;;;;;;;;;;11.23;94.47;98669.38;5102990;28;19987;-60
2023/01/22 12:17:05;;;;;;;;;;;;;;;9.35;98.90;98672.66;5101407;28;19966;-60
2023/01/22 12:19:44;;;;;;;;;;;;;;;7.89;99.07;98670.06;5104432;28;19974;-62
2023/01/22 12:22:18;;;;;;;;;;;;;;;6.65;100.00;98674.28;5100939;28;19925;-61
2023/01/22 12:24:47;;;;;;;;;;;;;;;6.53;100.00;98678.69;5101552;28;19964;-61
2023/01/22 12:27:15;;;;;;;;;;;;;;;6.04;100.00;98677.63;5093140;28;19959;-61
2023/01/22 12:29:43;;;;;;;;;;;;;;;5.50;100.00;98677.34;5093279;28;19962;-61
2023/01/22 12:32:11;;;;;;;;;;;;;;;5.23;100.00;98676.66;5092861;28;19924;-62
2023/01/22 12:34:43;;;;;;;;;;;;;;;5.35;100.00;98683.69;5095224;28;19924;-61
2023/01/22 12:37:13;;;;;;;;;;;;;;;4.86;100.00;98676.34;5105203;28;19925;-61
2023/01/22 12:39:45;;;;;;;;;;;;;;;4.98;100.00;98681.00;5104891;28;19924;-61
2023/01/22 12:42:15;;;;;;;;;;;;;;;4.83;100.00;98682.06;5101459;28;19962;-61
2023/01/22 12:44:48;;;;;;;;;;;;;;;4.69;100.00;98669.88;5101005;28;19963;-61
2023/01/22 12:47:19;;;;;;;;;;;;;;;5.00;100.00;98686.91;5092555;28;19993;-62
2023/01/22 12:49:47;;;;;;;;;;;;;;;5.32;100.00;98670.88;5092682;28;19962;-61
2023/01/22 12:52:27;;;;;;;;;;;;;;;5.45;100.00;98678.78;5092084;28;19924;-61
2023/01/22 12:54:54;;;;;;;;;;;;;;;5.33;100.00;98680.47;5092983;28;19925;-62
2023/01/22 12:57:23;;;;;;;;;;;;;;;5.43;100.00;98675.53;5104318;28;19984;-61
2023/01/22 12:59:51;;;;;;;;;;;;;;;5.00;100.00;98674.47;5104020;28;19995;-61
2023/01/22 13:02:22;;;;;;;;;;;;;;;4.91;100.00;98678.38;5100666;28;19924;-61
2023/01/22 13:04:50;;;;;;;;;;;;;;;4.90;100.00;98677.56;5105924;28;19947;-62
2023/01/22 13:07:21;;;;;;;;;;;;;;;5.19;100.00;98676.25;5104063;28;19991;-61
2023/01/22 13:09:48;;;;;;;;;;;;;;;4.80;100.00;98676.34;5103928;28;19924;-61
2023/01/22 13:12:25;;;;;;;;;;;;;;;4.73;100.00;98681.69;5092218;28;19924;-62